sensor_id;sensor_type;location;lat;lon;timestamp;pressure;altitude;pressure_sealevel;temperature
15079;BMP180;6932;51.438;5.470;2023-03-01T00:01:04;102683.00;;;8.50
15079;BMP180;6932;51.438;5.470;2023-03-01T00:03:31;102687.00;;;8.50
15079;BMP180;6932;51.438;5.470;2023-03-01T00:05:58;102688.00;;;8.50
15079;BMP180;6932;51.438;5.470;2023-03-01T00:08:24;102689.00;;;8.40
15079;BMP180;6932;51.438;5.470;2023-03-01T00:13:41;102699.00;;;8.40
15079;BMP180;6932;51.438;5.470;2023-03-01T00:16:10;102683.00;;;8.40
15079;BMP180;6932;51.438;5.470;2023-03-01T00:18:36;102687.00;;;8.40
15079;BMP180;6932;51.438;5.470;2023-03-01T00:21:03;102679.00;;;8.30
15079;BMP180;6932;51.438;5.470;2023-03-01T00:23:28;102676.00;;;8.30
15079;BMP180;6932;51.438;5.470;2023-03-01T00:25:54;102690.00;;;8.30
15079;BMP180;6932;51.438;5.470;2023-03-01T00:28:21;102675.00;;;8.30
15079;BMP180;6932;51.438;5.470;2023-03-01T00:30:47;102675.00;;;8.30
15079;BMP180;6932;51.438;5.470;2023-03-01T00:33:13;102671.00;;;8.30
15079;BMP180;6932;51.438;5.470;2023-03-01T00:35:39;102673.00;;;8.30
15079;BMP180;6932;51.438;5.470;2023-03-01T00:38:05;102678.00;;;8.30
15079;BMP180;6932;51.438;5.470;2023-03-01T00:40:35;102679.00;;;8.30
15079;BMP180;6932;51.438;5.470;2023-03-01T00:43:02;102670.00;;;8.30
15079;BMP180;6932;51.438;5.470;2023-03-01T00:45:28;102679.00;;;8.20
15079;BMP180;6932;51.438;5.470;2023-03-01T00:47:54;102674.00;;;8.20
15079;BMP180;6932;51.438;5.470;2023-03-01T00:50:20;102661.00;;;8.20
15079;BMP180;6932;51.438;5.470;2023-03-01T00:52:46;102674.00;;;8.20
15079;BMP180;6932;51.438;5.470;2023-03-01T00:55:12;102662.00;;;8.20
15079;BMP180;6932;51.438;5.470;2023-03-01T00:57:38;102660.00;;;8.20
15079;BMP180;6932;51.438;5.470;2023-03-01T01:00:06;102659.00;;;8.10
15079;BMP180;6932;51.438;5.470;2023-03-01T01:02:33;102657.00;;;8.10
15079;BMP180;6932;51.438;5.470;2023-03-01T01:04:59;102656.00;;;8.10
15079;BMP180;6932;51.438;5.470;2023-03-01T01:07:25;102658.00;;;8.10
15079;BMP180;6932;51.438;5.470;2023-03-01T01:09:51;102651.00;;;8.10
15079;BMP180;6932;51.438;5.470;2023-03-01T01:12:17;102649.00;;;8.10
15079;BMP180;6932;51.438;5.470;2023-03-01T01:14:42;102642.00;;;8.10
15079;BMP180;6932;51.438;5.470;2023-03-01T01:17:08;102647.00;;;8.00
15079;BMP180;6932;51.438;5.470;2023-03-01T01:19:34;102644.00;;;8.00
15079;BMP180;6932;51.438;5.470;2023-03-01T01:22:00;102647.00;;;8.00
15079;BMP180;6932;51.438;5.470;2023-03-01T01:24:26;102640.00;;;8.00
15079;BMP180;6932;51.438;5.470;2023-03-01T01:26:52;102627.00;;;8.00
15079;BMP180;6932;51.438;5.470;2023-03-01T01:29:17;102617.00;;;7.90
15079;BMP180;6932;51.438;5.470;2023-03-01T01:31:44;102615.00;;;7.90
15079;BMP180;6932;51.438;5.470;2023-03-01T01:34:17;102613.00;;;7.90
15079;BMP180;6932;51.438;5.470;2023-03-01T01:36:43;102603.00;;;7.90
15079;BMP180;6932;51.438;5.470;2023-03-01T01:39:09;102602.00;;;7.80
15079;BMP180;6932;51.438;5.470;2023-03-01T01:41:41;102611.00;;;7.80
15079;BMP180;6932;51.438;5.470;2023-03-01T01:44:16;102603.00;;;7.80
15079;BMP180;6932;51.438;5.470;2023-03-01T01:47:05;102602.00;;;7.80
15079;BMP180;6932;51.438;5.470;2023-03-01T01:55:11;102600.00;;;7.70
15079;BMP180;6932;51.438;5.470;2023-03-01T01:57:51;102600.00;;;7.70
15079;BMP180;6932;51.438;5.470;2023-03-01T02:00:33;102597.00;;;7.70
15079;BMP180;6932;51.438;5.470;2023-03-01T02:03:19;102583.00;;;7.70
15079;BMP180;6932;51.438;5.470;2023-03-01T02:06:12;102584.00;;;7.60
15079;BMP180;6932;51.438;5.470;2023-03-01T02:08:41;102584.00;;;7.60
15079;BMP180;6932;51.438;5.470;2023-03-01T02:11:10;102577.00;;;7.60
15079;BMP180;6932;51.438;5.470;2023-03-01T02:13:37;102577.00;;;7.60
15079;BMP180;6932;51.438;5.470;2023-03-01T02:16:08;102578.00;;;7.60
15079;BMP180;6932;51.438;5.470;2023-03-01T02:18:34;102569.00;;;7.50
15079;BMP180;6932;51.438;5.470;2023-03-01T02:21:30;102571.00;;;7.50
15079;BMP180;6932;51.438;5.470;2023-03-01T02:25:09;102574.00;;;7.50
15079;BMP180;6932;51.438;5.470;2023-03-01T02:27:16;102563.00;;;7.50
15079;BMP180;6932;51.438;5.470;2023-03-01T02:29:43;102567.00;;;7.50
15079;BMP180;6932;51.438;5.470;2023-03-01T02:32:12;102563.00;;;7.50
15079;BMP180;6932;51.438;5.470;2023-03-01T02:34:39;102558.00;;;7.50
15079;BMP180;6932;51.438;5.470;2023-03-01T02:37:15;102564.00;;;7.50
15079;BMP180;6932;51.438;5.470;2023-03-01T02:39:56;102571.00;;;7.40
15079;BMP180;6932;51.438;5.470;2023-03-01T02:42:32;102568.00;;;7.40
15079;BMP180;6932;51.438;5.470;2023-03-01T02:44:59;102574.00;;;7.40
15079;BMP180;6932;51.438;5.470;2023-03-01T02:47:25;102569.00;;;7.40
15079;BMP180;6932;51.438;5.470;2023-03-01T02:49:50;102576.00;;;7.40
15079;BMP180;6932;51.438;5.470;2023-03-01T02:55:18;102577.00;;;7.40
15079;BMP180;6932;51.438;5.470;2023-03-01T02:57:46;102565.00;;;7.30
15079;BMP180;6932;51.438;5.470;2023-03-01T03:00:23;102562.00;;;7.30
15079;BMP180;6932;51.438;5.470;2023-03-01T03:02:53;102558.00;;;7.30
15079;BMP180;6932;51.438;5.470;2023-03-01T03:05:26;102553.00;;;7.30
15079;BMP180;6932;51.438;5.470;2023-03-01T03:07:52;102561.00;;;7.30
15079;BMP180;6932;51.438;5.470;2023-03-01T03:10:32;102564.00;;;7.30
15079;BMP180;6932;51.438;5.470;2023-03-01T03:13:12;102561.00;;;7.30
15079;BMP180;6932;51.438;5.470;2023-03-01T03:15:39;102551.00;;;7.30
15079;BMP180;6932;51.438;5.470;2023-03-01T03:18:16;102557.00;;;7.30
15079;BMP180;6932;51.438;5.470;2023-03-01T03:20:43;102564.00;;;7.30
15079;BMP180;6932;51.438;5.470;2023-03-01T03:23:11;102562.00;;;7.30
15079;BMP180;6932;51.438;5.470;2023-03-01T03:25:37;102560.00;;;7.20
15079;BMP180;6932;51.438;5.470;2023-03-01T03:28:05;102560.00;;;7.20
15079;BMP180;6932;51.438;5.470;2023-03-01T03:30:38;102553.00;;;7.20
15079;BMP180;6932;51.438;5.470;2023-03-01T03:33:05;102552.00;;;7.20
15079;BMP180;6932;51.438;5.470;2023-03-01T03:35:41;102553.00;;;7.20
15079;BMP180;6932;51.438;5.470;2023-03-01T03:38:10;102557.00;;;7.20
15079;BMP180;6932;51.438;5.470;2023-03-01T03:43:21;102552.00;;;7.10
15079;BMP180;6932;51.438;5.470;2023-03-01T03:45:50;102559.00;;;7.10
15079;BMP180;6932;51.438;5.470;2023-03-01T03:48:17;102553.00;;;7.10
15079;BMP180;6932;51.438;5.470;2023-03-01T03:50:53;102564.00;;;7.10
15079;BMP180;6932;51.438;5.470;2023-03-01T03:53:21;102558.00;;;7.10
15079;BMP180;6932;51.438;5.470;2023-03-01T03:55:47;102553.00;;;7.10
15079;BMP180;6932;51.438;5.470;2023-03-01T03:58:15;102546.00;;;7.10
15079;BMP180;6932;51.438;5.470;2023-03-01T04:00:44;102553.00;;;7.00
15079;BMP180;6932;51.438;5.470;2023-03-01T04:03:13;102548.00;;;7.00
15079;BMP180;6932;51.438;5.470;2023-03-01T04:05:41;102535.00;;;7.00
15079;BMP180;6932;51.438;5.470;2023-03-01T04:08:07;102534.00;;;7.00
15079;BMP180;6932;51.438;5.470;2023-03-01T04:10:41;102539.00;;;7.00
15079;BMP180;6932;51.438;5.470;2023-03-01T04:13:12;102536.00;;;7.00
15079;BMP180;6932;51.438;5.470;2023-03-01T04:15:39;102519.00;;;6.90
15079;BMP180;6932;51.438;5.470;2023-03-01T04:18:06;102533.00;;;6.90
15079;BMP180;6932;51.438;5.470;2023-03-01T04:20:35;102533.00;;;6.90
15079;BMP180;6932;51.438;5.470;2023-03-01T04:23:12;102518.00;;;6.90
15079;BMP180;6932;51.438;5.470;2023-03-01T04:25:55;102524.00;;;6.90
15079;BMP180;6932;51.438;5.470;2023-03-01T04:28:46;102537.00;;;6.80
15079;BMP180;6932;51.438;5.470;2023-03-01T04:31:19;102525.00;;;6.80
15079;BMP180;6932;51.438;5.470;2023-03-01T04:33:53;102525.00;;;6.80
15079;BMP180;6932;51.438;5.470;2023-03-01T04:36:25;102519.00;;;6.80
15079;BMP180;6932;51.438;5.470;2023-03-01T04:38:51;102525.00;;;6.80
15079;BMP180;6932;51.438;5.470;2023-03-01T04:41:20;102520.00;;;6.80
15079;BMP180;6932;51.438;5.470;2023-03-01T04:43:47;102517.00;;;6.70
15079;BMP180;6932;51.438;5.470;2023-03-01T04:46:17;102506.00;;;6.70
15079;BMP180;6932;51.438;5.470;2023-03-01T04:48:45;102504.00;;;6.70
15079;BMP180;6932;51.438;5.470;2023-03-01T04:51:13;102498.00;;;6.70
15079;BMP180;6932;51.438;5.470;2023-03-01T04:53:40;102500.00;;;6.70
15079;BMP180;6932;51.438;5.470;2023-03-01T04:56:06;102495.00;;;6.70
15079;BMP180;6932;51.438;5.470;2023-03-01T04:58:33;102492.00;;;6.70
15079;BMP180;6932;51.438;5.470;2023-03-01T05:00:59;102492.00;;;6.70
15079;BMP180;6932;51.438;5.470;2023-03-01T05:03:25;102496.00;;;6.70
15079;BMP180;6932;51.438;5.470;2023-03-01T05:05:52;102502.00;;;6.70
15079;BMP180;6932;51.438;5.470;2023-03-01T05:08:18;102508.00;;;6.70
15079;BMP180;6932;51.438;5.470;2023-03-01T05:10:53;102506.00;;;6.70
15079;BMP180;6932;51.438;5.470;2023-03-01T05:13:20;102507.00;;;6.60
15079;BMP180;6932;51.438;5.470;2023-03-01T05:16:01;102505.00;;;6.60
15079;BMP180;6932;51.438;5.470;2023-03-01T05:18:31;102505.00;;;6.60
15079;BMP180;6932;51.438;5.470;2023-03-01T05:21:11;102495.00;;;6.60
15079;BMP180;6932;51.438;5.470;2023-03-01T05:23:37;102490.00;;;6.60
15079;BMP180;6932;51.438;5.470;2023-03-01T05:26:06;102485.00;;;6.60
15079;BMP180;6932;51.438;5.470;2023-03-01T05:28:33;102477.00;;;6.60
15079;BMP180;6932;51.438;5.470;2023-03-01T05:30:59;102486.00;;;6.60
15079;BMP180;6932;51.438;5.470;2023-03-01T05:33:25;102472.00;;;6.60
15079;BMP180;6932;51.438;5.470;2023-03-01T05:35:52;102476.00;;;6.60
15079;BMP180;6932;51.438;5.470;2023-03-01T05:38:20;102467.00;;;6.60
15079;BMP180;6932;51.438;5.470;2023-03-01T05:40:48;102461.00;;;6.60
15079;BMP180;6932;51.438;5.470;2023-03-01T05:43:16;102460.00;;;6.60
15079;BMP180;6932;51.438;5.470;2023-03-01T05:45:43;102459.00;;;6.60
15079;BMP180;6932;51.438;5.470;2023-03-01T05:48:10;102458.00;;;6.60
15079;BMP180;6932;51.438;5.470;2023-03-01T05:50:41;102462.00;;;6.60
15079;BMP180;6932;51.438;5.470;2023-03-01T05:53:13;102462.00;;;6.60
15079;BMP180;6932;51.438;5.470;2023-03-01T05:55:41;102460.00;;;6.50
15079;BMP180;6932;51.438;5.470;2023-03-01T05:58:12;102463.00;;;6.60
15079;BMP180;6932;51.438;5.470;2023-03-01T06:00:40;102463.00;;;6.50
15079;BMP180;6932;51.438;5.470;2023-03-01T06:03:06;102458.00;;;6.60
15079;BMP180;6932;51.438;5.470;2023-03-01T06:05:32;102462.00;;;6.50
15079;BMP180;6932;51.438;5.470;2023-03-01T06:08:02;102450.00;;;6.60
15079;BMP180;6932;51.438;5.470;2023-03-01T06:10:29;102451.00;;;6.50
15079;BMP180;6932;51.438;5.470;2023-03-01T06:12:55;102459.00;;;6.50
15079;BMP180;6932;51.438;5.470;2023-03-01T06:15:22;102453.00;;;6.50
15079;BMP180;6932;51.438;5.470;2023-03-01T06:17:48;102471.00;;;6.50
15079;BMP180;6932;51.438;5.470;2023-03-01T06:20:18;102465.00;;;6.50
15079;BMP180;6932;51.438;5.470;2023-03-01T06:22:45;102456.00;;;6.50
15079;BMP180;6932;51.438;5.470;2023-03-01T06:25:15;102459.00;;;6.50
15079;BMP180;6932;51.438;5.470;2023-03-01T06:27:42;102461.00;;;6.50
15079;BMP180;6932;51.438;5.470;2023-03-01T06:30:10;102468.00;;;6.50
15079;BMP180;6932;51.438;5.470;2023-03-01T06:32:38;102470.00;;;6.40
15079;BMP180;6932;51.438;5.470;2023-03-01T06:35:11;102460.00;;;6.40
15079;BMP180;6932;51.438;5.470;2023-03-01T06:37:38;102471.00;;;6.40
15079;BMP180;6932;51.438;5.470;2023-03-01T06:40:06;102469.00;;;6.40
15079;BMP180;6932;51.438;5.470;2023-03-01T06:42:35;102473.00;;;6.40
15079;BMP180;6932;51.438;5.470;2023-03-01T06:45:02;102463.00;;;6.40
15079;BMP180;6932;51.438;5.470;2023-03-01T06:47:28;102479.00;;;6.40
15079;BMP180;6932;51.438;5.470;2023-03-01T06:49:53;102474.00;;;6.40
15079;BMP180;6932;51.438;5.470;2023-03-01T06:52:19;102466.00;;;6.50
15079;BMP180;6932;51.438;5.470;2023-03-01T06:54:45;102474.00;;;6.50
15079;BMP180;6932;51.438;5.470;2023-03-01T06:57:11;102459.00;;;6.60
15079;BMP180;6932;51.438;5.470;2023-03-01T06:59:36;102462.00;;;6.60
15079;BMP180;6932;51.438;5.470;2023-03-01T07:02:02;102453.00;;;6.70
15079;BMP180;6932;51.438;5.470;2023-03-01T07:04:28;102454.00;;;6.80
15079;BMP180;6932;51.438;5.470;2023-03-01T07:06:54;102457.00;;;6.90
15079;BMP180;6932;51.438;5.470;2023-03-01T07:09:24;102443.00;;;7.00
15079;BMP180;6932;51.438;5.470;2023-03-01T07:11:50;102447.00;;;7.00
15079;BMP180;6932;51.438;5.470;2023-03-01T07:14:16;102458.00;;;7.20
15079;BMP180;6932;51.438;5.470;2023-03-01T07:16:42;102462.00;;;7.20
15079;BMP180;6932;51.438;5.470;2023-03-01T07:19:07;102468.00;;;7.40
15079;BMP180;6932;51.438;5.470;2023-03-01T07:21:33;102481.00;;;7.50
15079;BMP180;6932;51.438;5.470;2023-03-01T07:23:59;102484.00;;;7.60
15079;BMP180;6932;51.438;5.470;2023-03-01T07:26:25;102483.00;;;7.70
15079;BMP180;6932;51.438;5.470;2023-03-01T07:28:50;102480.00;;;7.80
15079;BMP180;6932;51.438;5.470;2023-03-01T07:31:16;102484.00;;;7.90
15079;BMP180;6932;51.438;5.470;2023-03-01T07:33:42;102489.00;;;8.00
15079;BMP180;6932;51.438;5.470;2023-03-01T07:36:08;102488.00;;;8.10
15079;BMP180;6932;51.438;5.470;2023-03-01T07:38:34;102477.00;;;8.20
15079;BMP180;6932;51.438;5.470;2023-03-01T07:41:02;102477.00;;;8.30
15079;BMP180;6932;51.438;5.470;2023-03-01T07:43:30;102485.00;;;8.40
15079;BMP180;6932;51.438;5.470;2023-03-01T07:46:00;102475.00;;;8.50
15079;BMP180;6932;51.438;5.470;2023-03-01T07:48:26;102481.00;;;8.60
15079;BMP180;6932;51.438;5.470;2023-03-01T07:50:51;102482.00;;;8.70
15079;BMP180;6932;51.438;5.470;2023-03-01T07:53:17;102484.00;;;8.80
15079;BMP180;6932;51.438;5.470;2023-03-01T07:55:43;102476.00;;;8.90
15079;BMP180;6932;51.438;5.470;2023-03-01T07:58:09;102475.00;;;8.90
15079;BMP180;6932;51.438;5.470;2023-03-01T08:00:35;102483.00;;;9.00
15079;BMP180;6932;51.438;5.470;2023-03-01T08:03:01;102480.00;;;9.10
15079;BMP180;6932;51.438;5.470;2023-03-01T08:05:28;102473.00;;;9.10
15079;BMP180;6932;51.438;5.470;2023-03-01T08:07:54;102486.00;;;9.20
15079;BMP180;6932;51.438;5.470;2023-03-01T08:10:20;102477.00;;;9.20
15079;BMP180;6932;51.438;5.470;2023-03-01T08:12:46;102485.00;;;9.30
15079;BMP180;6932;51.438;5.470;2023-03-01T08:15:11;102477.00;;;9.40
15079;BMP180;6932;51.438;5.470;2023-03-01T08:17:40;102472.00;;;9.50
15079;BMP180;6932;51.438;5.470;2023-03-01T08:20:06;102472.00;;;9.50
15079;BMP180;6932;51.438;5.470;2023-03-01T08:22:32;102381.00;;;9.70
15079;BMP180;6932;51.438;5.470;2023-03-01T08:24:58;102393.00;;;9.50
15079;BMP180;6932;51.438;5.470;2023-03-01T08:27:24;102391.00;;;9.30
15079;BMP180;6932;51.438;5.470;2023-03-01T08:29:49;102389.00;;;9.00
15079;BMP180;6932;51.438;5.470;2023-03-01T08:32:15;102391.00;;;8.90
15079;BMP180;6932;51.438;5.470;2023-03-01T08:34:41;102392.00;;;8.80
15079;BMP180;6932;51.438;5.470;2023-03-01T08:37:07;102387.00;;;8.70
15079;BMP180;6932;51.438;5.470;2023-03-01T08:39:32;102376.00;;;8.70
15079;BMP180;6932;51.438;5.470;2023-03-01T08:41:58;102462.00;;;8.60
15079;BMP180;6932;51.438;5.470;2023-03-01T08:44:24;102461.00;;;8.80
15079;BMP180;6932;51.438;5.470;2023-03-01T08:46:50;102460.00;;;9.10
15079;BMP180;6932;51.438;5.470;2023-03-01T08:49:19;102447.00;;;9.30
15079;BMP180;6932;51.438;5.470;2023-03-01T08:51:46;102461.00;;;9.60
15079;BMP180;6932;51.438;5.470;2023-03-01T08:54:17;102449.00;;;9.80
15079;BMP180;6932;51.438;5.470;2023-03-01T08:56:44;102451.00;;;10.00
15079;BMP180;6932;51.438;5.470;2023-03-01T08:59:15;102453.00;;;10.20
15079;BMP180;6932;51.438;5.470;2023-03-01T09:01:41;102447.00;;;10.40
15079;BMP180;6932;51.438;5.470;2023-03-01T09:04:12;102456.00;;;10.60
15079;BMP180;6932;51.438;5.470;2023-03-01T09:06:38;102449.00;;;10.80
15079;BMP180;6932;51.438;5.470;2023-03-01T09:09:05;102444.00;;;10.90
15079;BMP180;6932;51.438;5.470;2023-03-01T09:11:32;102450.00;;;11.00
15079;BMP180;6932;51.438;5.470;2023-03-01T09:13:58;102444.00;;;11.10
15079;BMP180;6932;51.438;5.470;2023-03-01T09:16:24;102442.00;;;11.30
15079;BMP180;6932;51.438;5.470;2023-03-01T09:18:54;102440.00;;;11.40
15079;BMP180;6932;51.438;5.470;2023-03-01T09:21:22;102436.00;;;11.50
15079;BMP180;6932;51.438;5.470;2023-03-01T09:23:49;102438.00;;;11.50
15079;BMP180;6932;51.438;5.470;2023-03-01T09:26:19;102428.00;;;11.60
15079;BMP180;6932;51.438;5.470;2023-03-01T09:28:46;102429.00;;;11.80
15079;BMP180;6932;51.438;5.470;2023-03-01T09:31:14;102432.00;;;11.80
15079;BMP180;6932;51.438;5.470;2023-03-01T09:33:41;102430.00;;;12.00
15079;BMP180;6932;51.438;5.470;2023-03-01T09:36:12;102426.00;;;12.00
15079;BMP180;6932;51.438;5.470;2023-03-01T09:38:38;102420.00;;;12.10
15079;BMP180;6932;51.438;5.470;2023-03-01T09:41:45;102429.00;;;12.20
15079;BMP180;6932;51.438;5.470;2023-03-01T09:45:33;102421.00;;;12.20
15079;BMP180;6932;51.438;5.470;2023-03-01T09:47:31;102420.00;;;12.20
15079;BMP180;6932;51.438;5.470;2023-03-01T09:50:18;102421.00;;;12.20
15079;BMP180;6932;51.438;5.470;2023-03-01T09:53:13;102410.00;;;12.20
15079;BMP180;6932;51.438;5.470;2023-03-01T09:56:03;102408.00;;;12.20
15079;BMP180;6932;51.438;5.470;2023-03-01T09:58:58;102393.00;;;12.30
15079;BMP180;6932;51.438;5.470;2023-03-01T10:04:28;102392.00;;;12.20
15079;BMP180;6932;51.438;5.470;2023-03-01T10:09:40;102389.00;;;12.30
15079;BMP180;6932;51.438;5.470;2023-03-01T10:12:17;102376.00;;;12.30
15079;BMP180;6932;51.438;5.470;2023-03-01T10:15:25;102372.00;;;12.30
15079;BMP180;6932;51.438;5.470;2023-03-01T10:18:01;102378.00;;;12.30
15079;BMP180;6932;51.438;5.470;2023-03-01T10:20:55;102360.00;;;12.30
15079;BMP180;6932;51.438;5.470;2023-03-01T10:23:24;102364.00;;;12.30
15079;BMP180;6932;51.438;5.470;2023-03-01T10:26:17;102361.00;;;12.70
15079;BMP180;6932;51.438;5.470;2023-03-01T10:29:08;102358.00;;;12.60
15079;BMP180;6932;51.438;5.470;2023-03-01T10:31:50;102349.00;;;12.60
15079;BMP180;6932;51.438;5.470;2023-03-01T10:34:22;102340.00;;;12.60
15079;BMP180;6932;51.438;5.470;2023-03-01T10:36:51;102344.00;;;12.60
15079;BMP180;6932;51.438;5.470;2023-03-01T10:39:24;102343.00;;;12.70
15079;BMP180;6932;51.438;5.470;2023-03-01T10:42:05;102347.00;;;12.70
15079;BMP180;6932;51.438;5.470;2023-03-01T10:44:49;102340.00;;;12.80
15079;BMP180;6932;51.438;5.470;2023-03-01T10:47:21;102350.00;;;12.90
15079;BMP180;6932;51.438;5.470;2023-03-01T10:52:27;102343.00;;;12.90
15079;BMP180;6932;51.438;5.470;2023-03-01T10:54:58;102345.00;;;12.90
15079;BMP180;6932;51.438;5.470;2023-03-01T10:57:39;102351.00;;;12.90
15079;BMP180;6932;51.438;5.470;2023-03-01T11:00:25;102349.00;;;13.00
15079;BMP180;6932;51.438;5.470;2023-03-01T11:03:03;102350.00;;;13.00
15079;BMP180;6932;51.438;5.470;2023-03-01T11:05:29;102357.00;;;12.90
15079;BMP180;6932;51.438;5.470;2023-03-01T11:08:00;102347.00;;;12.90
15079;BMP180;6932;51.438;5.470;2023-03-01T11:10:34;102332.00;;;12.80
15079;BMP180;6932;51.438;5.470;2023-03-01T11:13:17;102352.00;;;12.80
15079;BMP180;6932;51.438;5.470;2023-03-01T11:16:06;102346.00;;;12.80
15079;BMP180;6932;51.438;5.470;2023-03-01T11:18:33;102337.00;;;12.80
15079;BMP180;6932;51.438;5.470;2023-03-01T11:21:01;102355.00;;;12.90
15079;BMP180;6932;51.438;5.470;2023-03-01T11:23:30;102343.00;;;13.00
15079;BMP180;6932;51.438;5.470;2023-03-01T11:26:05;102350.00;;;13.00
15079;BMP180;6932;51.438;5.470;2023-03-01T11:28:36;102339.00;;;13.00
15079;BMP180;6932;51.438;5.470;2023-03-01T11:31:08;102350.00;;;13.00
15079;BMP180;6932;51.438;5.470;2023-03-01T11:33:46;102334.00;;;13.00
15079;BMP180;6932;51.438;5.470;2023-03-01T11:36:41;102338.00;;;12.90
15079;BMP180;6932;51.438;5.470;2023-03-01T11:39:38;102332.00;;;12.90
15079;BMP180;6932;51.438;5.470;2023-03-01T11:42:20;102328.00;;;12.90
15079;BMP180;6932;51.438;5.470;2023-03-01T11:44:54;102330.00;;;12.90
15079;BMP180;6932;51.438;5.470;2023-03-01T12:08:23;102315.00;;;13.00
15079;BMP180;6932;51.438;5.470;2023-03-01T12:11:12;102309.00;;;12.90
15079;BMP180;6932;51.438;5.470;2023-03-01T12:14:22;102305.00;;;12.90
15079;BMP180;6932;51.438;5.470;2023-03-01T12:17:11;102302.00;;;12.90
15079;BMP180;6932;51.438;5.470;2023-03-01T12:22:30;102293.00;;;12.90
15079;BMP180;6932;51.438;5.470;2023-03-01T12:25:16;102287.00;;;13.00
15079;BMP180;6932;51.438;5.470;2023-03-01T12:28:14;102292.00;;;13.00
15079;BMP180;6932;51.438;5.470;2023-03-01T12:36:33;102268.00;;;13.00
15079;BMP180;6932;51.438;5.470;2023-03-01T12:49:21;102260.00;;;12.90
15079;BMP180;6932;51.438;5.470;2023-03-01T12:52:02;102262.00;;;12.90
15079;BMP180;6932;51.438;5.470;2023-03-01T12:54:33;102254.00;;;12.90
15079;BMP180;6932;51.438;5.470;2023-03-01T13:03:04;102248.00;;;12.70
15079;BMP180;6932;51.438;5.470;2023-03-01T13:06:05;102242.00;;;12.60
15079;BMP180;6932;51.438;5.470;2023-03-01T13:08:48;102237.00;;;12.60
15079;BMP180;6932;51.438;5.470;2023-03-01T13:11:22;102237.00;;;12.50
15079;BMP180;6932;51.438;5.470;2023-03-01T13:13:49;102240.00;;;12.50
15079;BMP180;6932;51.438;5.470;2023-03-01T13:16:43;102238.00;;;12.50
15079;BMP180;6932;51.438;5.470;2023-03-01T13:19:17;102218.00;;;12.50
15079;BMP180;6932;51.438;5.470;2023-03-01T13:21:45;102205.00;;;12.50
15079;BMP180;6932;51.438;5.470;2023-03-01T13:24:40;102210.00;;;12.50
15079;BMP180;6932;51.438;5.470;2023-03-01T13:36:00;102199.00;;;12.50
15079;BMP180;6932;51.438;5.470;2023-03-01T13:38:55;102197.00;;;12.50
15079;BMP180;6932;51.438;5.470;2023-03-01T13:44:32;102186.00;;;12.50
15079;BMP180;6932;51.438;5.470;2023-03-01T13:47:17;102186.00;;;12.50
15079;BMP180;6932;51.438;5.470;2023-03-01T13:49:58;102166.00;;;12.60
15079;BMP180;6932;51.438;5.470;2023-03-01T13:54:57;102171.00;;;12.50
15079;BMP180;6932;51.438;5.470;2023-03-01T13:57:32;102167.00;;;12.50
15079;BMP180;6932;51.438;5.470;2023-03-01T13:59:59;102142.00;;;12.50
15079;BMP180;6932;51.438;5.470;2023-03-01T14:02:25;102151.00;;;12.50
15079;BMP180;6932;51.438;5.470;2023-03-01T14:05:01;102148.00;;;12.60
15079;BMP180;6932;51.438;5.470;2023-03-01T14:07:28;102152.00;;;12.60
15079;BMP180;6932;51.438;5.470;2023-03-01T14:10:02;102148.00;;;12.60
15079;BMP180;6932;51.438;5.470;2023-03-01T14:13:00;102150.00;;;12.60
15079;BMP180;6932;51.438;5.470;2023-03-01T14:15:43;102141.00;;;12.60
15079;BMP180;6932;51.438;5.470;2023-03-01T14:18:26;102137.00;;;12.70
15079;BMP180;6932;51.438;5.470;2023-03-01T14:20:54;102130.00;;;12.70
15079;BMP180;6932;51.438;5.470;2023-03-01T14:23:23;102143.00;;;12.70
15079;BMP180;6932;51.438;5.470;2023-03-01T14:25:57;102131.00;;;12.70
15079;BMP180;6932;51.438;5.470;2023-03-01T14:28:28;102129.00;;;12.60
15079;BMP180;6932;51.438;5.470;2023-03-01T14:30:59;102129.00;;;12.60
15079;BMP180;6932;51.438;5.470;2023-03-01T14:33:37;102140.00;;;12.60
15079;BMP180;6932;51.438;5.470;2023-03-01T14:36:08;102134.00;;;12.60
15079;BMP180;6932;51.438;5.470;2023-03-01T14:38:44;102132.00;;;12.70
15079;BMP180;6932;51.438;5.470;2023-03-01T14:41:16;102135.00;;;12.70
15079;BMP180;6932;51.438;5.470;2023-03-01T14:43:53;102129.00;;;12.60
15079;BMP180;6932;51.438;5.470;2023-03-01T14:46:34;102118.00;;;12.60
15079;BMP180;6932;51.438;5.470;2023-03-01T14:49:12;102113.00;;;12.70
15079;BMP180;6932;51.438;5.470;2023-03-01T14:51:46;102103.00;;;12.70
15079;BMP180;6932;51.438;5.470;2023-03-01T14:54:39;102098.00;;;12.60
15079;BMP180;6932;51.438;5.470;2023-03-01T14:57:14;102098.00;;;12.60
15079;BMP180;6932;51.438;5.470;2023-03-01T14:59:42;102096.00;;;12.60
15079;BMP180;6932;51.438;5.470;2023-03-01T15:02:15;102097.00;;;12.60
15079;BMP180;6932;51.438;5.470;2023-03-01T15:04:49;102089.00;;;12.60
15079;BMP180;6932;51.438;5.470;2023-03-01T15:07:17;102077.00;;;12.60
15079;BMP180;6932;51.438;5.470;2023-03-01T15:09:44;102085.00;;;12.60
15079;BMP180;6932;51.438;5.470;2023-03-01T15:12:38;102084.00;;;12.60
15079;BMP180;6932;51.438;5.470;2023-03-01T15:18:21;102091.00;;;12.50
15079;BMP180;6932;51.438;5.470;2023-03-01T15:20:49;102083.00;;;12.50
15079;BMP180;6932;51.438;5.470;2023-03-01T15:23:26;102075.00;;;12.60
15079;BMP180;6932;51.438;5.470;2023-03-01T15:25:55;102085.00;;;12.60
15079;BMP180;6932;51.438;5.470;2023-03-01T15:28:32;102083.00;;;12.60
15079;BMP180;6932;51.438;5.470;2023-03-01T15:34:23;102083.00;;;12.50
15079;BMP180;6932;51.438;5.470;2023-03-01T15:36:51;102080.00;;;12.50
15079;BMP180;6932;51.438;5.470;2023-03-01T15:39:57;102076.00;;;12.50
15079;BMP180;6932;51.438;5.470;2023-03-01T15:47:55;102070.00;;;12.80
15079;BMP180;6932;51.438;5.470;2023-03-01T15:50:30;102078.00;;;12.70
15079;BMP180;6932;51.438;5.470;2023-03-01T15:52:59;102087.00;;;12.60
15079;BMP180;6932;51.438;5.470;2023-03-01T15:55:29;102069.00;;;12.60
15079;BMP180;6932;51.438;5.470;2023-03-01T15:58:22;102078.00;;;12.60
15079;BMP180;6932;51.438;5.470;2023-03-01T16:00:49;102074.00;;;12.50
15079;BMP180;6932;51.438;5.470;2023-03-01T16:03:22;102075.00;;;12.50
15079;BMP180;6932;51.438;5.470;2023-03-01T16:05:50;102065.00;;;12.50
15079;BMP180;6932;51.438;5.470;2023-03-01T16:08:17;102058.00;;;12.50
15079;BMP180;6932;51.438;5.470;2023-03-01T16:10:44;102053.00;;;12.50
15079;BMP180;6932;51.438;5.470;2023-03-01T16:13:13;102061.00;;;12.50
15079;BMP180;6932;51.438;5.470;2023-03-01T16:15:40;102060.00;;;12.50
15079;BMP180;6932;51.438;5.470;2023-03-01T16:18:06;102048.00;;;12.40